Time;durP1;ratioP1;P1;durP2;ratioP2;P2;SDS_P1;SDS_P2;PMS_P1;PMS_P2;Temp;Humidity;BMP_temperature;BMP_pressure;BME280_temperature;BME280_humidity;BME280_pressure;Samples;Min_cycle;Max_cycle;Signal;HPM_P1;HPM_P2
2021/03/10 00:00:57;;;;;;;39.80;20.23;;;4.30;15.90;;;;;;4901137;29;20048;-74
2021/03/10 00:03:24;;;;;;;37.72;20.52;;;4.30;16.10;;;;;;4901377;29;20048;-74
2021/03/10 00:05:51;;;;;;;41.40;20.80;;;4.30;16.60;;;;;;4906874;29;20455;-75
2021/03/10 00:08:18;;;;;;;41.70;19.63;;;4.40;16.20;;;;;;4905518;29;20052;-74
2021/03/10 00:10:45;;;;;;;40.50;20.95;;;4.40;15.80;;;;;;4904002;29;20062;-74
2021/03/10 00:13:13;;;;;;;38.80;19.77;;;4.50;15.80;;;;;;4904836;29;20045;-73
2021/03/10 00:15:40;;;;;;;41.17;20.42;;;4.50;15.80;;;;;;4902892;29;20055;-75
2021/03/10 00:18:08;;;;;;;38.25;19.80;;;4.60;15.90;;;;;;4901047;29;20139;-74
2021/03/10 00:20:36;;;;;;;36.45;19.80;;;4.50;15.70;;;;;;4898456;29;20060;-73
2021/03/10 00:23:03;;;;;;;40.15;19.90;;;4.50;15.80;;;;;;4904800;29;20543;-74
2021/03/10 00:25:30;;;;;;;38.70;19.45;;;4.50;15.80;;;;;;4905094;29;20052;-74
2021/03/10 00:27:58;;;;;;;42.45;20.80;;;4.50;15.80;;;;;;4901664;29;20533;-77
2021/03/10 00:30:25;;;;;;;43.67;23.08;;;4.50;15.80;;;;;;4902353;29;20060;-76
2021/03/10 00:32:53;;;;;;;45.30;22.42;;;4.50;15.80;;;;;;4903565;29;20059;-74
2021/03/10 00:35:29;;;;;;;39.83;20.67;;;4.50;16.00;;;;;;4902328;29;20073;-76
2021/03/10 00:37:58;;;;;;;43.10;22.58;;;4.40;15.80;;;;;;4903158;29;20066;-74
2021/03/10 00:40:25;;;;;;;42.75;22.63;;;4.50;15.90;;;;;;4903968;29;20076;-74
2021/03/10 00:42:53;;;;;;;40.83;21.45;;;4.40;16.10;;;;;;4905359;29;20140;-74
2021/03/10 00:45:20;;;;;;;48.00;22.60;;;4.40;16.60;;;;;;4900293;29;20066;-74
2021/03/10 00:47:47;;;;;;;43.83;22.27;;;4.50;16.80;;;;;;4899256;29;20549;-74
2021/03/10 00:50:18;;;;;;;45.75;22.42;;;4.50;16.70;;;;;;4905369;29;20183;-73
2021/03/10 00:52:46;;;;;;;43.47;22.20;;;4.60;17.10;;;;;;4901251;29;20511;-74
2021/03/10 00:55:13;;;;;;;44.25;23.02;;;4.50;16.80;;;;;;4903196;29;20052;-74
2021/03/10 00:57:40;;;;;;;45.50;23.13;;;4.60;17.00;;;;;;4900389;29;20167;-75
2021/03/10 01:00:09;;;;;;;47.38;22.85;;;4.60;16.60;;;;;;4901411;29;20045;-74
2021/03/10 01:02:36;;;;;;;39.28;21.52;;;4.60;16.40;;;;;;4900210;29;20048;-74
2021/03/10 01:05:04;;;;;;;42.72;22.23;;;4.60;16.40;;;;;;4902968;29;20084;-74
2021/03/10 01:07:31;;;;;;;45.35;23.00;;;4.60;16.90;;;;;;4900624;29;20676;-73
2021/03/10 01:09:59;;;;;;;47.10;23.27;;;4.60;16.70;;;;;;4904926;29;20055;-74
2021/03/10 01:12:26;;;;;;;42.65;21.60;;;4.60;17.20;;;;;;4899058;29;20681;-73
2021/03/10 01:14:53;;;;;;;47.88;23.48;;;4.60;16.60;;;;;;4898297;29;20170;-76
2021/03/10 01:17:23;;;;;;;44.58;22.48;;;4.60;16.70;;;;;;4902499;29;20071;-74
2021/03/10 01:19:50;;;;;;;44.17;22.33;;;4.70;16.70;;;;;;4903452;29;20518;-74
2021/03/10 01:22:17;;;;;;;47.00;21.92;;;4.70;16.80;;;;;;4900073;29;20055;-75
2021/03/10 01:24:44;;;;;;;46.45;23.67;;;4.70;16.50;;;;;;4904829;29;20519;-74
2021/03/10 01:27:16;;;;;;;47.03;22.92;;;4.70;16.50;;;;;;4900408;29;20419;-74
2021/03/10 01:29:44;;;;;;;45.75;22.90;;;4.70;16.20;;;;;;4898079;29;20044;-74
2021/03/10 01:32:11;;;;;;;45.03;22.38;;;4.70;16.00;;;;;;4901172;29;20044;-74
2021/03/10 01:34:39;;;;;;;47.72;24.23;;;4.70;16.50;;;;;;4905953;29;20064;-74
2021/03/10 01:37:06;;;;;;;46.80;24.15;;;4.70;16.90;;;;;;4900559;29;20052;-75
2021/03/10 01:39:33;;;;;;;46.85;23.60;;;4.70;17.00;;;;;;4900567;29;20061;-74
2021/03/10 01:42:00;;;;;;;48.75;24.33;;;4.70;17.00;;;;;;4900832;29;20056;-73
2021/03/10 01:44:27;;;;;;;45.90;23.85;;;4.60;16.90;;;;;;4904765;29;20074;-74
2021/03/10 01:46:54;;;;;;;43.70;23.98;;;4.60;17.30;;;;;;4898476;29;20056;-74
2021/03/10 01:49:22;;;;;;;47.83;24.45;;;4.60;17.20;;;;;;4901460;29;20045;-74
2021/03/10 01:51:49;;;;;;;50.03;24.73;;;4.60;17.40;;;;;;4896301;29;20262;-74
2021/03/10 01:54:16;;;;;;;45.20;23.77;;;4.70;17.20;;;;;;4902442;29;20424;-75
2021/03/10 01:56:43;;;;;;;48.20;24.50;;;4.70;17.10;;;;;;4904900;29;20044;-72
2021/03/10 01:59:10;;;;;;;46.08;22.83;;;4.60;16.90;;;;;;4904822;29;20059;-74
2021/03/10 02:01:38;;;;;;;48.45;24.40;;;4.60;17.30;;;;;;4901485;29;20059;-73
2021/03/10 02:04:07;;;;;;;45.63;22.80;;;4.60;17.50;;;;;;4908990;29;20525;-74
2021/03/10 02:06:43;;;;;;;50.70;24.95;;;4.60;17.30;;;;;;4906961;29;20044;-74
2021/03/10 02:09:16;;;;;;;50.20;24.02;;;4.70;17.10;;;;;;4902285;29;20068;-73
2021/03/10 02:11:51;;;;;;;46.05;23.98;;;4.60;16.80;;;;;;4906079;29;20108;-73
2021/03/10 02:14:24;;;;;;;44.47;22.67;;;4.60;17.20;;;;;;4903812;29;20466;-74
2021/03/10 02:16:57;;;;;;;45.05;22.90;;;4.50;17.40;;;;;;4904358;29;20051;-74
2021/03/10 02:19:45;;;;;;;44.17;22.35;;;4.50;17.70;;;;;;4905263;29;20055;-74
2021/03/10 02:22:24;;;;;;;46.35;23.50;;;4.50;18.00;;;;;;4911882;29;20466;-72
2021/03/10 02:25:04;;;;;;;45.33;22.55;;;4.40;18.40;;;;;;4906312;29;20396;-72
2021/03/10 02:27:42;;;;;;;48.08;23.98;;;4.40;18.30;;;;;;4907307;29;20059;-72
2021/03/10 02:30:12;;;;;;;42.65;22.67;;;4.40;18.50;;;;;;4908087;29;20048;-73
2021/03/10 02:32:43;;;;;;;46.92;22.27;;;4.40;18.60;;;;;;4904870;29;20055;-73
2021/03/10 02:35:12;;;;;;;57.40;25.85;;;4.40;18.70;;;;;;4903534;29;20051;-73
2021/03/10 02:37:44;;;;;;;44.13;23.33;;;4.40;18.80;;;;;;4904443;29;20557;-74
2021/03/10 02:40:15;;;;;;;46.50;23.83;;;4.40;18.90;;;;;;4909225;29;20052;-77
2021/03/10 02:42:45;;;;;;;46.80;23.45;;;4.40;18.80;;;;;;4904441;29;20053;-74
2021/03/10 02:45:14;;;;;;;50.33;24.45;;;4.40;18.90;;;;;;4906378;29;20143;-76
2021/03/10 02:47:42;;;;;;;46.45;24.38;;;4.40;19.00;;;;;;4905344;29;20097;-75
2021/03/10 02:50:12;;;;;;;49.25;23.48;;;4.40;18.80;;;;;;4910022;29;20059;-77
2021/03/10 02:52:41;;;;;;;47.03;22.83;;;4.40;18.90;;;;;;4902026;29;20496;-76
2021/03/10 02:55:09;;;;;;;49.30;24.05;;;4.50;19.00;;;;;;4904215;29;20076;-73
2021/03/10 02:57:36;;;;;;;45.47;23.45;;;4.50;19.30;;;;;;4902773;29;20065;-74
2021/03/10 03:00:07;;;;;;;50.90;24.05;;;4.50;19.00;;;;;;4907843;29;20083;-77
2021/03/10 03:02:35;;;;;;;54.90;24.23;;;4.50;19.20;;;;;;4905264;29;20209;-75
2021/03/10 03:05:05;;;;;;;48.72;24.50;;;4.50;19.20;;;;;;4903827;29;21346;-75
2021/03/10 03:07:32;;;;;;;50.75;23.90;;;4.50;19.30;;;;;;4903139;29;20048;-74
2021/03/10 03:10:00;;;;;;;46.08;23.90;;;4.50;19.30;;;;;;4904634;29;20044;-75
2021/03/10 03:12:28;;;;;;;53.97;26.10;;;4.50;19.20;;;;;;4902423;29;20374;-75
2021/03/10 03:14:57;;;;;;;55.53;25.52;;;4.50;19.20;;;;;;4900631;29;20064;-74
2021/03/10 03:17:25;;;;;;;52.63;24.88;;;4.50;19.10;;;;;;4905556;29;20086;-74
2021/03/10 03:19:52;;;;;;;50.10;25.05;;;4.50;19.00;;;;;;4905694;29;20048;-75
2021/03/10 03:22:20;;;;;;;50.63;24.50;;;4.50;19.20;;;;;;4902047;29;20054;-75
2021/03/10 03:24:49;;;;;;;48.03;23.45;;;4.50;19.00;;;;;;4909048;29;20048;-75
2021/03/10 03:27:25;;;;;;;52.75;24.35;;;4.50;19.10;;;;;;4907854;29;20048;-75
2021/03/10 03:29:55;;;;;;;48.85;22.95;;;4.50;18.70;;;;;;4904275;29;20055;-76
2021/03/10 03:32:26;;;;;;;52.40;24.33;;;4.50;18.50;;;;;;4901896;29;20135;-75
2021/03/10 03:34:54;;;;;;;46.42;22.40;;;4.50;18.40;;;;;;4902363;29;20055;-76
2021/03/10 03:37:40;;;;;;;45.72;23.98;;;4.50;18.30;;;;;;4904292;29;20064;-74
2021/03/10 03:40:08;;;;;;;50.30;24.80;;;4.50;18.30;;;;;;4907900;29;20040;-76
2021/03/10 03:42:36;;;;;;;47.58;23.88;;;4.50;18.40;;;;;;4909058;29;20595;-74
2021/03/10 03:45:04;;;;;;;49.40;24.23;;;4.50;18.50;;;;;;4903388;29;20051;-73
2021/03/10 03:47:32;;;;;;;48.85;22.50;;;4.50;18.60;;;;;;4905834;29;20052;-75
2021/03/10 03:49:59;;;;;;;50.47;23.23;;;4.50;18.60;;;;;;4887907;29;20072;-74
2021/03/10 03:52:26;;;;;;;49.75;24.52;;;4.50;18.90;;;;;;4904251;29;20056;-75
2021/03/10 03:54:53;;;;;;;48.63;23.88;;;4.40;18.90;;;;;;4905687;29;20052;-74
2021/03/10 03:57:20;;;;;;;55.95;24.90;;;4.40;19.10;;;;;;4900049;29;20055;-75
2021/03/10 03:59:49;;;;;;;46.67;23.48;;;4.40;19.30;;;;;;4904986;29;20044;-74
2021/03/10 04:02:16;;;;;;;54.55;24.95;;;4.30;19.50;;;;;;4902789;29;20083;-74
2021/03/10 04:04:45;;;;;;;54.42;25.20;;;4.40;19.50;;;;;;4904078;29;20048;-74
2021/03/10 04:07:12;;;;;;;49.90;25.05;;;4.40;19.30;;;;;;4907853;29;20045;-74
2021/03/10 04:09:39;;;;;;;48.42;23.48;;;4.30;19.40;;;;;;4905308;29;20108;-75
2021/03/10 04:12:08;;;;;;;50.03;24.60;;;4.30;19.70;;;;;;4903281;29;20051;-75
2021/03/10 04:14:35;;;;;;;50.55;25.15;;;4.30;19.90;;;;;;4905123;29;20108;-76
2021/03/10 04:17:04;;;;;;;49.83;24.13;;;4.30;20.30;;;;;;4902932;29;20045;-74
2021/03/10 04:19:32;;;;;;;48.70;23.95;;;4.30;20.00;;;;;;4885597;29;20131;-73
2021/03/10 04:22:00;;;;;;;50.47;25.30;;;4.30;20.10;;;;;;4899148;29;20060;-74
2021/03/10 04:24:27;;;;;;;49.35;24.67;;;4.30;20.10;;;;;;4903258;29;20069;-75
2021/03/10 04:26:54;;;;;;;52.70;24.80;;;4.30;20.20;;;;;;4901154;29;21320;-74
2021/03/10 04:29:21;;;;;;;50.40;23.80;;;4.30;20.30;;;;;;4903828;29;20095;-74
2021/03/10 04:31:51;;;;;;;49.45;24.40;;;4.30;20.20;;;;;;4902291;29;20048;-75
2021/03/10 04:34:19;;;;;;;50.58;24.70;;;4.30;20.20;;;;;;4903273;29;20063;-75
2021/03/10 04:36:46;;;;;;;52.80;25.80;;;4.30;20.30;;;;;;4902875;29;20072;-73
2021/03/10 04:39:15;;;;;;;55.70;25.60;;;4.30;20.20;;;;;;4904202;29;20048;-74
2021/03/10 04:41:42;;;;;;;54.97;25.17;;;4.30;20.10;;;;;;4897966;29;20131;-75
2021/03/10 04:44:09;;;;;;;53.45;25.17;;;4.30;19.90;;;;;;4902688;29;20057;-75
2021/03/10 04:46:36;;;;;;;45.35;23.65;;;4.30;19.90;;;;;;4898474;29;20741;-74
2021/03/10 04:49:03;;;;;;;48.60;24.40;;;4.30;19.80;;;;;;4902195;29;20055;-73
2021/03/10 04:51:30;;;;;;;46.53;23.90;;;4.30;20.20;;;;;;4900033;29;20147;-74
2021/03/10 04:53:57;;;;;;;49.90;24.33;;;4.30;20.10;;;;;;4905941;29;20068;-76
2021/03/10 04:56:25;;;;;;;47.85;23.95;;;4.30;19.80;;;;;;4902351;29;20059;-74
2021/03/10 04:58:52;;;;;;;54.05;26.30;;;4.20;20.10;;;;;;4901651;29;20048;-74
2021/03/10 05:01:19;;;;;;;53.05;24.98;;;4.20;20.30;;;;;;4901431;29;20099;-73
2021/03/10 05:03:45;;;;;;;48.85;24.27;;;4.20;20.40;;;;;;4901352;29;20056;-73
2021/03/10 05:06:12;;;;;;;48.30;24.75;;;4.20;20.50;;;;;;4901268;29;20052;-74
2021/03/10 05:08:51;;;;;;;56.05;25.73;;;4.30;20.40;;;;;;4901170;29;20048;-74
2021/03/10 05:11:18;;;;;;;55.60;25.55;;;4.20;20.50;;;;;;4901441;29;20041;-74
2021/03/10 05:13:47;;;;;;;53.17;25.33;;;4.30;19.90;;;;;;4901634;29;20058;-74
2021/03/10 05:16:14;;;;;;;46.70;24.73;;;4.30;19.90;;;;;;4895862;29;20048;-74
2021/03/10 05:18:41;;;;;;;51.38;23.75;;;4.30;19.80;;;;;;4901000;29;20055;-73
2021/03/10 05:21:08;;;;;;;50.47;24.15;;;4.40;19.60;;;;;;4900990;29;20073;-75
2021/03/10 05:23:35;;;;;;;53.28;24.00;;;4.40;19.30;;;;;;4901121;29;20430;-73
2021/03/10 05:26:02;;;;;;;52.15;25.88;;;4.40;19.20;;;;;;4901059;29;20055;-73
2021/03/10 05:28:30;;;;;;;49.58;24.73;;;4.40;19.30;;;;;;4905683;29;20056;-73
2021/03/10 05:30:58;;;;;;;49.00;23.65;;;4.40;19.40;;;;;;4895823;29;20056;-75
2021/03/10 05:33:26;;;;;;;49.15;24.52;;;4.40;19.30;;;;;;4906067;29;20140;-74
2021/03/10 05:35:53;;;;;;;53.85;25.20;;;4.40;19.20;;;;;;4902897;29;20057;-73
2021/03/10 05:38:20;;;;;;;50.05;25.70;;;4.40;19.40;;;;;;4907037;29;20189;-73
2021/03/10 05:40:47;;;;;;;48.20;25.05;;;4.50;19.30;;;;;;4904764;29;20053;-74
2021/03/10 05:43:15;;;;;;;51.38;24.98;;;4.50;19.10;;;;;;4905385;29;20056;-74
2021/03/10 05:45:42;;;;;;;50.38;24.88;;;4.50;19.20;;;;;;4905519;29;20044;-74
2021/03/10 05:48:11;;;;;;;47.10;24.40;;;4.50;19.20;;;;;;4908472;29;20067;-73
2021/03/10 05:50:38;;;;;;;47.17;25.13;;;4.50;18.90;;;;;;4908629;29;20487;-74
2021/03/10 05:53:11;;;;;;;49.33;24.88;;;4.50;18.90;;;;;;4909835;29;20044;-74
2021/03/10 05:55:39;;;;;;;55.25;25.65;;;4.50;19.00;;;;;;4906261;29;20053;-74
2021/03/10 05:58:10;;;;;;;51.35;25.17;;;4.40;19.20;;;;;;4906457;29;20048;-74
2021/03/10 06:00:42;;;;;;;48.83;24.27;;;4.40;19.20;;;;;;4905978;29;20056;-74
2021/03/10 06:03:12;;;;;;;49.17;23.83;;;4.50;19.40;;;;;;4910353;29;20075;-74
2021/03/10 06:05:40;;;;;;;49.00;24.52;;;4.50;19.30;;;;;;4908725;29;20053;-74
2021/03/10 06:08:08;;;;;;;56.55;25.02;;;4.50;19.20;;;;;;4902702;29;20131;-75
2021/03/10 06:10:41;;;;;;;53.85;25.60;;;4.60;19.00;;;;;;4908779;29;20159;-74
2021/03/10 06:13:18;;;;;;;52.45;25.88;;;4.60;18.70;;;;;;4907686;29;20403;-75
2021/03/10 06:15:45;;;;;;;51.15;24.95;;;4.60;18.50;;;;;;4903823;29;20045;-75
2021/03/10 06:18:26;;;;;;;48.67;24.70;;;4.60;18.80;;;;;;4903725;29;20048;-74
2021/03/10 06:21:07;;;;;;;54.42;24.65;;;4.60;18.50;;;;;;4906284;29;20922;-76
2021/03/10 06:23:34;;;;;;;49.40;25.27;;;4.60;18.60;;;;;;4906372;29;20517;-74
2021/03/10 06:26:01;;;;;;;51.72;25.02;;;4.70;18.20;;;;;;4904541;29;20418;-76
2021/03/10 06:28:36;;;;;;;52.40;25.30;;;4.70;18.00;;;;;;4907008;29;20102;-75
2021/03/10 06:31:03;;;;;;;;;;;4.70;18.10;;;;;;4906311;29;20046;-74
2021/03/10 06:33:30;;;;;;;50.92;24.85;;;4.70;18.00;;;;;;4910474;29;20350;-76
2021/03/10 06:35:58;;;;;;;53.10;25.00;;;4.80;18.00;;;;;;4903548;29;20087;-76
2021/03/10 06:38:25;;;;;;;46.92;24.73;;;4.80;16.80;;;;;;4905307;29;20057;-75
2021/03/10 06:40:53;;;;;;;51.63;24.98;;;4.80;17.00;;;;;;4898599;29;20063;-75
2021/03/10 06:43:21;;;;;;;50.22;25.70;;;4.90;17.00;;;;;;4902655;29;20423;-75
2021/03/10 06:45:48;;;;;;;50.75;24.90;;;5.00;16.10;;;;;;4908929;29;20052;-75
2021/03/10 06:48:19;;;;;;;48.03;25.08;;;5.10;16.20;;;;;;4904557;29;20131;-74
2021/03/10 06:50:48;;;;;;;48.00;24.02;;;5.10;15.60;;;;;;4905410;29;20056;-75
2021/03/10 06:53:15;;;;;;;49.17;23.92;;;5.20;15.10;;;;;;4910310;29;20442;-75
2021/03/10 06:55:44;;;;;;;48.83;25.58;;;5.30;15.00;;;;;;4902582;29;20048;-75
2021/03/10 06:58:21;;;;;;;48.28;24.77;;;5.40;14.00;;;;;;4902992;29;20048;-74
2021/03/10 07:00:47;;;;;;;47.13;24.30;;;5.40;14.20;;;;;;4903435;29;20053;-73
2021/03/10 07:03:14;;;;;;;49.47;24.70;;;5.50;14.00;;;;;;4904417;29;20059;-74
2021/03/10 07:05:43;;;;;;;48.45;24.90;;;5.60;12.60;;;;;;4900059;29;20056;-73
2021/03/10 07:08:11;;;;;;;46.63;25.35;;;5.50;12.90;;;;;;4902028;29;20055;-74
2021/03/10 07:10:38;;;;;;;49.53;25.38;;;5.60;13.00;;;;;;4901641;29;20505;-75
2021/03/10 07:13:05;;;;;;;45.28;23.13;;;5.70;12.10;;;;;;4905640;29;20059;-73
2021/03/10 07:15:32;;;;;;;47.22;23.92;;;5.60;12.30;;;;;;4901243;29;20052;-76
2021/03/10 07:17:59;;;;;;;45.88;23.88;;;5.60;12.00;;;;;;4903202;29;20052;-73
2021/03/10 07:20:26;;;;;;;49.80;25.25;;;5.70;11.50;;;;;;4904189;29;20067;-75
2021/03/10 07:23:05;;;;;;;45.50;23.05;;;5.80;11.10;;;;;;4907605;29;20459;-74
2021/03/10 07:25:35;;;;;;;47.10;23.80;;;5.90;10.30;;;;;;4902771;29;20056;-74
2021/03/10 07:28:04;;;;;;;43.17;23.30;;;5.90;10.40;;;;;;4902523;29;20044;-75
2021/03/10 07:30:36;;;;;;;41.45;23.08;;;5.90;9.90;;;;;;4902800;29;20048;-75
2021/03/10 07:33:05;;;;;;;43.03;23.50;;;6.00;9.60;;;;;;4903449;29;20067;-74
2021/03/10 07:35:32;;;;;;;47.92;25.02;;;6.20;9.70;;;;;;4902563;29;20217;-74
2021/03/10 07:37:59;;;;;;;44.50;23.13;;;6.30;9.40;;;;;;4902343;29;20054;-75
2021/03/10 07:40:57;;;;;;;49.45;25.42;;;6.30;8.20;;;;;;4903803;29;20048;-74
2021/03/10 07:43:35;;;;;;;43.72;24.40;;;6.20;8.90;;;;;;4903138;29;20559;-74
2021/03/10 07:46:02;;;;;;;51.13;24.23;;;6.40;8.40;;;;;;4901197;29;20056;-77
2021/03/10 07:48:31;;;;;;;45.15;24.48;;;6.40;8.00;;;;;;4902281;29;20139;-75
2021/03/10 07:50:58;;;;;;;44.22;23.48;;;6.50;7.80;;;;;;4902065;29;20765;-73
2021/03/10 07:53:35;;;;;;;45.78;23.95;;;6.50;7.20;;;;;;4906747;29;20066;-74
2021/03/10 07:56:03;;;;;;;42.80;21.92;;;6.50;6.60;;;;;;4898128;29;20056;-74
2021/03/10 07:58:32;;;;;;;39.25;22.45;;;6.50;6.60;;;;;;4904058;29;20061;-75
2021/03/10 08:00:59;;;;;;;41.92;23.85;;;6.40;7.30;;;;;;4899887;29;20422;-74
2021/03/10 08:03:28;;;;;;;43.92;23.05;;;6.60;6.60;;;;;;4901323;29;20060;-75
2021/03/10 08:06:03;;;;;;;48.58;24.48;;;6.60;6.50;;;;;;4899844;29;20443;-75
2021/03/10 08:08:34;;;;;;;;;;;6.90;5.60;;;;;;4903659;29;20072;-75
2021/03/10 08:11:08;;;;;;;44.97;24.00;;;7.00;3.50;;;;;;4900857;29;19974;-74
2021/03/10 08:13:35;;;;;;;46.67;24.42;;;6.90;5.60;;;;;;4904880;29;20054;-74
2021/03/10 08:16:05;;;;;;;44.60;24.42;;;6.90;4.50;;;;;;4898997;29;20052;-75
2021/03/10 08:18:32;;;;;;;46.33;24.75;;;6.80;5.50;;;;;;4903931;29;20847;-75
2021/03/10 08:21:07;;;;;;;51.03;25.30;;;6.80;5.30;;;;;;4898264;29;20044;-75
2021/03/10 08:23:34;;;;;;;42.88;24.50;;;6.90;5.20;;;;;;4903584;29;20063;-74
2021/03/10 08:26:02;;;;;;;43.22;24.13;;;6.80;6.00;;;;;;4902041;29;20095;-75
2021/03/10 08:28:34;;;;;;;47.25;24.00;;;6.80;5.40;;;;;;4903598;29;20056;-74
2021/03/10 08:31:03;;;;;;;45.28;23.27;;;6.80;5.40;;;;;;4905774;29;20075;-74
2021/03/10 08:33:31;;;;;;;38.38;21.85;;;6.80;5.10;;;;;;4903498;29;20052;-75
2021/03/10 08:35:58;;;;;;;44.10;23.85;;;6.80;3.70;;;;;;4903249;29;20052;-74
2021/03/10 08:38:31;;;;;;;47.47;25.48;;;6.80;4.50;;;;;;4898787;29;20063;-77
2021/03/10 08:41:08;;;;;;;42.97;23.52;;;6.90;2.90;;;;;;4904648;29;20048;-75
2021/03/10 08:43:36;;;;;;;43.70;22.83;;;6.80;3.30;;;;;;4901626;29;20071;-75
2021/03/10 08:46:03;;;;;;;46.03;23.10;;;6.90;3.90;;;;;;4896693;29;20068;-75
2021/03/10 08:48:33;;;;;;;43.35;24.77;;;7.10;3.20;;;;;;4902667;29;20064;-77
2021/03/10 08:51:02;;;;;;;45.80;24.27;;;7.30;2.30;;;;;;4902943;29;20047;-76
2021/03/10 08:53:29;;;;;;;41.58;22.23;;;7.60;1.00;;;;;;4903737;29;20058;-74
2021/03/10 08:56:05;;;;;;;43.58;23.05;;;7.20;1.50;;;;;;4900944;29;20513;-77
2021/03/10 08:58:32;;;;;;;40.30;21.80;;;7.60;1.00;;;;;;4898968;29;20348;-75
2021/03/10 09:01:12;;;;;;;42.92;23.45;;;7.50;1.00;;;;;;4901885;29;20059;-74
2021/03/10 09:03:43;;;;;;;42.42;22.38;;;7.70;1.00;;;;;;4898029;29;20148;-76
2021/03/10 09:06:10;;;;;;;42.15;23.48;;;7.90;1.00;;;;;;4894369;29;20056;-76
2021/03/10 09:08:37;;;;;;;41.30;22.63;;;8.00;1.00;;;;;;4901689;29;20053;-76
2021/03/10 09:11:04;;;;;;;47.58;22.00;;;7.50;1.00;;;;;;4902671;29;20056;-74
2021/03/10 09:13:31;;;;;;;37.40;19.52;;;7.10;1.00;;;;;;4903558;29;20048;-75
2021/03/10 09:16:09;;;;;;;39.42;20.75;;;7.40;1.00;;;;;;4902508;29;20155;-73
2021/03/10 09:18:36;;;;;;;39.75;21.17;;;7.50;1.00;;;;;;4901769;29;20067;-74
2021/03/10 09:21:05;;;;;;;39.17;21.95;;;7.90;1.00;;;;;;4897735;29;20068;-74
2021/03/10 09:23:32;;;;;;;41.72;22.48;;;8.30;1.00;;;;;;4898579;29;20052;-73
2021/03/10 09:25:59;;;;;;;37.50;20.98;;;8.10;1.00;;;;;;4896815;29;20144;-74
2021/03/10 09:28:34;;;;;;;41.97;22.83;;;7.60;1.00;;;;;;4900975;29;20099;-75
2021/03/10 09:31:01;;;;;;;41.53;21.83;;;8.00;1.00;;;;;;4892017;29;20137;-75
2021/03/10 09:33:31;;;;;;;37.15;20.83;;;8.20;1.00;;;;;;4899122;29;20060;-75
2021/03/10 09:35:59;;;;;;;40.22;22.33;;;8.00;1.00;;;;;;4899421;29;20052;-74
2021/03/10 09:38:28;;;;;;;37.20;22.58;;;7.80;1.00;;;;;;4902062;29;20092;-76
2021/03/10 09:40:57;;;;;;;38.88;21.65;;;8.00;1.00;;;;;;4904146;29;20056;-74
2021/03/10 09:43:26;;;;;;;36.67;21.90;;;7.70;1.00;;;;;;4901691;29;20049;-75
2021/03/10 09:45:56;;;;;;;40.05;21.50;;;7.80;1.00;;;;;;4901792;29;20440;-74
2021/03/10 09:48:30;;;;;;;37.97;20.45;;;7.90;1.00;;;;;;4904994;29;20053;-73
2021/03/10 09:51:04;;;;;;;41.38;21.83;;;8.00;1.00;;;;;;4896172;29;20082;-74
2021/03/10 09:53:32;;;;;;;35.33;20.50;;;8.70;1.00;;;;;;4902631;29;20063;-74
2021/03/10 09:56:06;;;;;;;38.10;20.73;;;8.30;1.00;;;;;;4902017;29;20151;-74
2021/03/10 09:58:45;;;;;;;37.28;20.50;;;8.40;1.00;;;;;;4893484;29;20099;-74
2021/03/10 10:01:12;;;;;;;37.58;19.63;;;8.50;1.00;;;;;;4902184;29;20084;-73
2021/03/10 10:03:40;;;;;;;37.72;20.23;;;8.30;1.00;;;;;;4896914;29;20128;-76
2021/03/10 10:06:09;;;;;;;37.22;21.25;;;8.40;1.00;;;;;;4895058;29;20057;-72
2021/03/10 10:08:38;;;;;;;37.67;21.08;;;8.50;1.00;;;;;;4903782;29;20538;-74
2021/03/10 10:11:05;;;;;;;33.92;18.45;;;8.50;1.00;;;;;;4901465;29;20130;-73
2021/03/10 10:13:44;;;;;;;35.83;18.65;;;8.30;1.00;;;;;;4896651;29;20487;-75
2021/03/10 10:16:11;;;;;;;27.23;15.85;;;8.80;1.00;;;;;;4898377;29;20055;-75
2021/03/10 10:18:45;;;;;;;26.05;14.30;;;8.60;1.00;;;;;;4903659;29;20075;-74
2021/03/10 10:21:12;;;;;;;24.27;14.40;;;9.30;1.00;;;;;;4906268;29;20044;-75
2021/03/10 10:23:39;;;;;;;23.30;12.68;;;9.30;1.00;;;;;;4909113;29;20060;-74
2021/03/10 10:26:06;;;;;;;24.10;13.90;;;8.40;1.00;;;;;;4901411;29;20052;-75
2021/03/10 10:28:33;;;;;;;28.92;15.20;;;8.70;1.00;;;;;;4906380;29;20049;-76
2021/03/10 10:31:00;;;;;;;22.67;13.38;;;8.60;1.00;;;;;;4905117;29;20044;-75
2021/03/10 10:33:27;;;;;;;23.92;13.98;;;9.20;1.00;;;;;;4909250;29;20139;-76
2021/03/10 10:35:55;;;;;;;19.88;11.65;;;9.50;1.00;;;;;;4899230;29;20056;-76
2021/03/10 10:38:22;;;;;;;17.85;9.80;;;9.00;1.00;;;;;;4908415;29;20056;-75
2021/03/10 10:40:49;;;;;;;18.27;10.60;;;9.20;1.00;;;;;;4906448;29;20128;-74
2021/03/10 10:43:16;;;;;;;17.02;11.30;;;8.90;1.00;;;;;;4906355;29;20052;-75
2021/03/10 10:45:45;;;;;;;16.52;9.50;;;8.50;1.00;;;;;;4898386;29;20060;-73
2021/03/10 10:48:12;;;;;;;19.98;9.82;;;8.50;1.00;;;;;;4906130;29;20067;-74
2021/03/10 10:50:39;;;;;;;15.90;9.32;;;8.70;1.00;;;;;;4904088;29;20436;-74
2021/03/10 10:53:07;;;;;;;17.92;10.50;;;9.00;1.00;;;;;;4904616;29;20063;-74
2021/03/10 10:55:34;;;;;;;19.45;9.27;;;8.90;1.00;;;;;;4902657;29;20786;-75
2021/03/10 10:58:01;;;;;;;15.85;9.18;;;9.10;1.00;;;;;;4906664;29;20087;-72
2021/03/10 11:00:28;;;;;;;16.63;10.10;;;9.20;1.00;;;;;;4900787;29;20801;-75
2021/03/10 11:02:55;;;;;;;21.10;10.93;;;9.40;1.00;;;;;;4904471;29;20079;-74
2021/03/10 11:05:42;;;;;;;18.30;10.98;;;9.00;1.00;;;;;;4899844;29;20158;-75
2021/03/10 11:08:10;;;;;;;18.55;10.50;;;9.40;1.00;;;;;;4904459;29;20048;-74
2021/03/10 11:10:36;;;;;;;18.38;10.35;;;9.80;1.00;;;;;;4905089;29;20044;-74
2021/03/10 11:13:05;;;;;;;11.70;7.65;;;9.40;1.00;;;;;;4906959;29;20436;-73
2021/03/10 11:15:32;;;;;;;11.02;6.82;;;9.40;1.00;;;;;;4901889;29;20072;-75
2021/03/10 11:17:59;;;;;;;8.52;4.75;;;9.80;1.00;;;;;;4903125;29;20054;-73
2021/03/10 11:20:26;;;;;;;10.65;6.43;;;9.40;1.00;;;;;;4904228;29;20052;-74
2021/03/10 11:22:53;;;;;;;11.02;6.80;;;9.30;1.00;;;;;;4904820;29;20049;-74
2021/03/10 11:25:20;;;;;;;12.25;7.18;;;9.60;1.00;;;;;;4900948;29;20083;-74
2021/03/10 11:27:47;;;;;;;15.05;7.93;;;9.60;1.00;;;;;;4900978;29;20620;-74
2021/03/10 11:30:15;;;;;;;14.80;8.77;;;9.80;1.00;;;;;;4905220;29;20086;-75
2021/03/10 11:32:42;;;;;;;12.52;7.18;;;9.50;1.00;;;;;;4903588;29;20056;-74
2021/03/10 11:35:12;;;;;;;13.20;8.93;;;9.50;1.00;;;;;;4904410;29;20048;-74
2021/03/10 11:37:39;;;;;;;13.07;8.05;;;10.30;1.00;;;;;;4900152;29;20054;-73
2021/03/10 11:40:08;;;;;;;13.88;7.88;;;9.60;1.00;;;;;;4904080;29;20060;-75
2021/03/10 11:42:36;;;;;;;12.45;7.97;;;9.90;1.00;;;;;;4905234;29;20048;-76
2021/03/10 11:45:06;;;;;;;14.02;8.02;;;9.40;1.00;;;;;;4905778;29;20112;-74
2021/03/10 11:47:33;;;;;;;14.23;7.93;;;8.90;1.00;;;;;;4898733;29;20147;-76
2021/03/10 11:50:00;;;;;;;14.48;8.57;;;9.50;1.00;;;;;;4900896;29;20060;-76
2021/03/10 11:52:27;;;;;;;13.50;8.43;;;9.60;1.00;;;;;;4905597;29;20078;-75
2021/03/10 11:54:54;;;;;;;14.55;8.30;;;9.20;1.00;;;;;;4905497;29;20072;-75
2021/03/10 11:57:21;;;;;;;12.80;7.68;;;9.00;1.00;;;;;;4901498;29;20049;-75
2021/03/10 11:59:48;;;;;;;15.90;9.10;;;8.80;1.00;;;;;;4907311;29;20063;-74
2021/03/10 12:02:15;;;;;;;14.60;8.55;;;8.70;1.00;;;;;;4904115;29;20048;-75
2021/03/10 12:04:42;;;;;;;17.83;8.63;;;9.20;1.00;;;;;;4904045;29;20052;-77
2021/03/10 12:07:11;;;;;;;13.68;8.93;;;9.00;1.00;;;;;;4898199;29;20052;-75
2021/03/10 12:09:38;;;;;;;14.00;8.25;;;9.00;1.00;;;;;;4903500;29;20078;-75
2021/03/10 12:12:06;;;;;;;15.35;8.45;;;9.40;1.00;;;;;;4900007;29;20528;-75
2021/03/10 12:14:33;;;;;;;14.15;8.95;;;9.40;1.00;;;;;;4900226;29;20055;-73
2021/03/10 12:17:01;;;;;;;15.20;9.02;;;9.60;1.00;;;;;;4900929;29;20060;-75
2021/03/10 12:19:28;;;;;;;14.57;8.60;;;9.90;1.00;;;;;;4904540;29;20144;-74
2021/03/10 12:21:55;;;;;;;12.77;7.57;;;10.00;1.00;;;;;;4900938;29;20566;-74
2021/03/10 12:24:22;;;;;;;10.32;6.95;;;10.00;1.00;;;;;;4909461;29;20048;-74
2021/03/10 12:26:48;;;;;;;11.55;7.13;;;9.70;1.00;;;;;;4898366;29;20582;-73
2021/03/10 12:29:15;;;;;;;12.88;7.47;;;9.80;1.00;;;;;;4900885;29;20058;-76
2021/03/10 12:31:42;;;;;;;12.25;7.40;;;9.30;1.00;;;;;;4906527;29;20487;-74
2021/03/10 12:34:11;;;;;;;12.07;7.22;;;9.20;1.00;;;;;;4909454;29;20079;-73
2021/03/10 12:36:38;;;;;;;11.30;6.55;;;9.90;1.00;;;;;;4899719;29;20142;-74
2021/03/10 12:39:07;;;;;;;10.95;6.80;;;10.00;1.00;;;;;;4900119;29;20086;-75
2021/03/10 12:41:34;;;;;;;10.18;5.57;;;10.50;1.00;;;;;;4904582;29;20057;-73
2021/03/10 12:44:01;;;;;;;9.35;5.80;;;10.50;1.00;;;;;;4903174;29;20527;-76
2021/03/10 12:46:31;;;;;;;10.27;5.82;;;10.40;1.00;;;;;;4899528;29;20184;-76
2021/03/10 12:48:59;;;;;;;11.48;6.85;;;10.00;1.00;;;;;;4901032;29;20513;-73
2021/03/10 12:51:27;;;;;;;8.85;5.72;;;9.90;1.00;;;;;;4909885;29;20048;-76